Share

Benalla, Victoria

Benalla (IVICBENA3) Elev 568 ft | 36.56 °S, 146.00 °E | Change Station

Current weather conditions updated 1 second ago

Cloudy
Cloudy
52.0 °F
Feels Like 52.0 °F
N
0.0
Wind Variable Wind from NE
Gusts 0.0 mph
Sunrise 6:46 AM
Sunset 5:42 PM
Moon Waning Gibbous

Today is forecast to be Warmer than yesterday. Showers possible.

Pressure 30.09 in
Visibility -9999.0 miles
Clouds
Dew Point 46 °F
Humidity 81%
Rainfall 0.00 in
Snow Depth Not available.
UV Not available.
Pollen Not available.
Air Quality Not available.
Flu Activity Not available.
METAR YWGT 211500Z AUTO 00000KT //// // ////// 09/09 Q1019

More Conditions Fewer Conditions

Pressure 30.09 in
Visibility -9999.0 miles
Clouds
Dew Point 46 °F
Humidity 81%
Rainfall 0.00 in
Snow Depth Not available.
UV Not available.
Pollen Not available.
Air Quality Not available.
Flu Activity Not available.
METAR YWGT 211500Z AUTO 00000KT //// // ////// 09/09 Q1019

More Conditions Fewer Conditions

10-Day Weather Forecast

Almanac

Astronomy

Apr. 22, 2014 Rise Set
Actual Time 6:46 AM EST 5:42 PM EST
Civil Twilight 6:20 AM EST 6:08 PM EST
Nautical Twilight 5:50 AM EST 6:38 PM EST
Astronomical Twilight 5:20 AM EST 7:08 PM EST
Moon No Moon Rise 1:01 PM EST (4/22)
Length of Visible Light 11h 47m
Length of Day
10h 55m
Tomorrow will be 2m 5s shorter.
Waning Gibbous, 58% of the Moon is Illuminated
Apr 21
Waning Gibbous
Apr 22
Last Quarter
Apr 29
New
May 6
First Quarter
May 14
Full

Yesterday's Extremes

Country Highs Country Lows

Community

  • Bright Eyes
    Bright Eyes
  • Snowy Robin
    Snowy Robin
  • Spring Crocus
    Spring Crocus
  • Sun Pillar and Geese
    Sun Pillar and Geese
  • Showers on the Way
    Showers on the Way

WunderPhotos

Upload Photos

1,703,665 photos uploaded!

Nearby

Snow Depth

Not available.

Coastal Water Temperatures

Place Temperature
No Stations Reporting

Earthquake Activity

City Distance Mag. Time & Date
No recent earthquake activity has been reported nearby.
Minimum magnitude displayed is 2.5.

Nearby Weather Stations

Station Location Temp. Dew Point Humidity Wind Precip. Elev Updated Type
Benalla, Benalla 52.0 °F 46 °F 81% NE  at  0.0 mph 0.00 in / hr 568 ft 1:33 AM EST Rapid Fire

Show More Stations Show Fewer Stations

What do you think?

We're not finished. Please let us know what you like, what you don't like, and what you are still missing.